Terminal Aerodrome Forecast
Issued by NWS Charleston, WV

Current Version | Previous Version | Graphics & Text | Print | Product List | Glossary On
Versions: 1 2 3 4 5 6 7 8 9 10 11 12 13 14 15 16 17 18 19 20
000
FTUS41 KRLX 022351
TAFPKB
TAF
KPKB 022351Z 0300/0324 34005KT 6SM -SHRA BR BKN060
     FM030300 00000KT 6SM -SHRA BR BKN015
     FM030500 00000KT 6SM BR BKN010
     FM030700 01004KT 6SM BR BKN008
     FM031300 32004KT P6SM BKN015
     FM031800 31006KT P6SM BKN025
     FM032100 31007KT P6SM SCT025
      AMD NOT SKED=

USA.gov is the U.S. government's official web portal to all federal, state and local government web resources and services.